Time;durP1;ratioP1;P1;durP2;ratioP2;P2;SDS_P1;SDS_P2;PMS_P1;PMS_P2;Temp;Humidity;BMP_temperature;BMP_pressure;BME280_temperature;BME280_humidity;BME280_pressure;Samples;Min_cycle;Max_cycle;Signal;HPM_P1;HPM_P2
2022/10/14 00:00:19;;;;;;;7.20;3.20;;;;;;;-141.97;63.91;47657.47;5032416;28;20748;-86
2022/10/14 00:02:44;;;;;;;5.40;2.93;;;;;;;-141.97;64.23;47657.47;5032645;28;20174;-87
2022/10/14 00:05:10;;;;;;;5.67;3.10;;;;;;;-141.97;64.11;47609.41;5031132;28;20180;-87
2022/10/14 00:07:36;;;;;;;5.83;3.03;;;;;;;-141.97;64.22;47503.69;5031148;28;20170;-87
2022/10/14 00:10:05;;;;;;;5.37;3.30;;;;;;;-141.97;64.31;47619.03;5032622;28;20642;-87
2022/10/14 00:12:33;;;;;;;5.50;3.10;;;;;;;-141.97;64.49;47636.31;5014901;28;20200;-87
2022/10/14 00:14:59;;;;;;;7.50;2.90;;;;;;;-141.97;65.35;47544.06;5032362;28;20685;-85
2022/10/14 00:17:24;;;;;;;4.60;3.10;;;;;;;-141.97;65.62;47549.84;5031106;28;20174;-86
2022/10/14 00:19:50;;;;;;;4.60;3.03;;;;;;;-141.97;65.43;47597.88;5014748;28;20171;-85
2022/10/14 00:22:15;;;;;;;5.53;2.90;;;;;;;-141.97;65.96;47496.00;5030869;28;20586;-86
2022/10/14 00:24:41;;;;;;;5.07;3.00;;;;;;;-141.97;66.22;47434.50;5032105;28;20391;-86
2022/10/14 00:27:07;;;;;;;5.97;3.27;;;;;;;-141.97;66.03;47745.88;5015799;28;20220;-86
2022/10/14 00:29:32;;;;;;;5.87;3.10;;;;;;;-141.97;66.58;47442.19;5015469;28;20170;-86
2022/10/14 00:31:58;;;;;;;6.63;3.83;;;;;;;-141.97;66.25;47730.50;5031066;28;20653;-86
2022/10/14 00:34:23;;;;;;;5.77;3.20;;;;;;;-141.97;66.44;47695.91;5030896;28;20170;-85
2022/10/14 00:36:49;;;;;;;7.47;3.50;;;;;;;-141.97;66.03;47511.38;5014621;28;20193;-86
2022/10/14 00:39:15;;;;;;;5.50;3.30;;;;;;;-141.97;66.89;47640.16;5015062;28;20687;-86
2022/10/14 00:41:40;;;;;;;7.10;3.50;;;;;;;-141.97;67.00;47526.75;5014710;28;20249;-86
2022/10/14 00:44:07;;;;;;;6.73;3.20;;;;;;;-141.97;66.43;47626.72;5015690;28;20645;-85
2022/10/14 00:46:35;;;;;;;6.23;2.97;;;;;;;-141.97;66.54;47630.56;5015883;28;20178;-85
2022/10/14 00:49:24;;;;;;;6.47;3.10;;;;;;;-141.97;66.66;47628.63;5014258;28;20275;-86
2022/10/14 00:52:10;;;;;;;5.50;3.50;;;;;;;-141.97;66.33;47534.44;5014202;28;20252;-86
2022/10/14 00:54:49;;;;;;;6.67;3.40;;;;;;;-141.97;66.54;47811.25;5032275;28;20272;-85
2022/10/14 00:57:15;;;;;;;6.80;3.40;;;;;;;-141.97;67.10;47634.41;5031953;28;20173;-85
2022/10/14 00:59:41;;;;;;;6.07;3.50;;;;;;;-141.97;67.22;47607.50;5031743;28;20173;-85
2022/10/14 01:02:07;;;;;;;6.10;3.70;;;;;;;-141.97;67.52;47742.03;5032121;28;20209;-86
2022/10/14 01:04:37;;;;;;;5.23;3.50;;;;;;;-141.97;67.41;47667.06;5013927;28;20257;-86
2022/10/14 01:07:30;;;;;;;5.90;3.10;;;;;;;-141.97;67.23;47651.69;5031609;28;20253;-86
2022/10/14 01:10:22;;;;;;;5.40;3.60;;;;;;;-141.97;67.55;47730.50;5028510;28;20178;-86
2022/10/14 01:12:51;;;;;;;5.80;3.33;;;;;;;-141.97;67.67;47647.84;5030463;28;20266;-86
2022/10/14 01:15:46;;;;;;;4.93;3.20;;;;;;;-141.97;67.57;47572.91;5013536;28;20678;-86
2022/10/14 01:18:18;;;;;;;5.33;2.97;;;;;;;-141.97;67.85;47611.34;4935025;29;20196;-86
2022/10/14 01:20:54;;;;;;;4.93;3.10;;;;;;;-141.97;67.61;47640.16;4935056;29;20188;-86
2022/10/14 01:23:37;;;;;;;7.37;3.23;;;;;;;-141.97;67.79;47642.09;4951456;29;20695;-87
2022/10/14 01:26:24;;;;;;;5.67;3.67;;;;;;;-141.97;68.15;47611.34;4935444;29;20176;-87
2022/10/14 01:29:30;;;;;;;5.50;3.33;;;;;;;-141.97;68.49;47640.16;4952644;29;20208;-86
2022/10/14 01:32:03;;;;;;;7.80;3.30;;;;;;;-141.97;68.21;47732.44;4963680;28;20190;-86
2022/10/14 01:34:39;;;;;;;6.87;3.23;;;;;;;-141.97;67.97;47617.09;4954366;28;20296;-86
2022/10/14 01:37:14;;;;;;;5.13;2.90;;;;;;;-141.97;68.19;47661.31;4970333;28;20663;-87
2022/10/14 01:39:53;;;;;;;5.63;2.90;;;;;;;-141.97;68.46;47584.44;4970408;28;20269;-86
2022/10/14 01:42:26;;;;;;;5.83;3.13;;;;;;;-141.97;68.40;47699.75;4970311;28;20219;-86
2022/10/14 01:44:58;;;;;;;6.60;3.13;;;;;;;-141.97;67.81;47580.59;4954081;28;20210;-86
2022/10/14 01:47:27;;;;;;;4.07;2.90;;;;;;;-141.97;67.64;47632.47;4970181;28;20275;-86
2022/10/14 01:50:01;;;;;;;5.27;2.87;;;;;;;-141.97;67.87;47653.63;4970024;28;20231;-86
2022/10/14 01:52:33;;;;;;;5.97;3.10;;;;;;;-141.97;67.57;47653.63;4970251;28;20196;-85
2022/10/14 01:55:03;;;;;;;5.70;2.77;;;;;;;-141.97;67.59;47455.66;4995251;28;20213;-86
2022/10/14 01:57:32;;;;;;;6.03;3.40;;;;;;;-141.97;67.74;47659.38;5013004;28;20174;-87
2022/10/14 01:59:58;;;;;;;4.73;2.90;;;;;;;-141.97;67.72;47517.16;5013157;28;20240;-85
2022/10/14 02:02:24;;;;;;;6.53;2.90;;;;;;;-141.97;68.02;47572.91;5029765;28;20178;-86
2022/10/14 02:04:50;;;;;;;4.00;2.60;;;;;;;-141.97;67.81;47624.78;5029611;28;20194;-85
2022/10/14 02:07:32;;;;;;;4.80;2.60;;;;;;;-141.97;67.92;47661.31;5030871;28;20170;-86
2022/10/14 02:10:20;;;;;;;5.83;3.03;;;;;;;-141.97;68.24;47603.66;5030743;28;20224;-86
2022/10/14 02:12:54;;;;;;;4.90;2.90;;;;;;;-141.97;68.19;47638.25;5030821;28;20259;-87
2022/10/14 02:15:39;;;;;;;4.80;2.57;;;;;;;-141.97;68.45;47599.81;5012974;28;20726;-86
2022/10/14 02:18:22;;;;;;;5.10;2.40;;;;;;;-141.97;68.26;47640.16;5012964;28;20260;-86
2022/10/14 02:21:09;;;;;;;3.60;2.30;;;;;;;-141.97;68.36;47628.63;5016677;28;20272;-87
2022/10/14 02:23:46;;;;;;;4.17;2.50;;;;;;;-141.97;68.85;47770.88;5034489;28;20173;-86
2022/10/14 02:26:13;;;;;;;4.33;2.50;;;;;;;-141.97;69.20;47605.56;5034741;28;20567;-86
2022/10/14 02:28:42;;;;;;;5.70;2.60;;;;;;;-141.97;69.31;47767.03;5016411;28;20268;-86
2022/10/14 02:31:12;;;;;;;3.53;2.53;;;;;;;-141.97;69.28;47778.56;5034105;28;20162;-86
2022/10/14 02:33:44;;;;;;;4.47;2.97;;;;;;;-141.97;69.52;47699.75;5032797;28;20170;-86
2022/10/14 02:36:13;;;;;;;3.67;2.50;;;;;;;-141.97;69.33;47734.34;5016371;28;20198;-86
2022/10/14 02:38:39;;;;;;;3.47;2.47;;;;;;;-141.97;69.21;47707.44;5034343;28;20232;-86
2022/10/14 02:41:10;;;;;;;4.33;2.40;;;;;;;-141.97;69.03;47515.22;5034011;28;20535;-86
2022/10/14 02:43:36;;;;;;;4.77;2.90;;;;;;;-141.97;69.02;47718.97;5033925;28;20251;-87
2022/10/14 02:46:03;;;;;;;4.60;2.60;;;;;;;-141.97;69.11;47772.78;5033936;28;20173;-86
2022/10/14 02:48:29;;;;;;;3.50;2.30;;;;;;;-141.97;68.80;47476.78;5016267;28;20178;-86
2022/10/14 02:50:54;;;;;;;5.97;2.60;;;;;;;-141.97;68.74;47672.84;5034127;28;20309;-86
2022/10/14 02:53:20;;;;;;;5.70;2.40;;;;;;;-141.97;68.62;47768.94;5033153;28;20647;-86
2022/10/14 02:55:45;;;;;;;5.03;2.77;;;;;;;-141.97;68.45;47561.38;5033096;28;20293;-86
2022/10/14 02:58:11;;;;;;;6.37;3.50;;;;;;;-141.97;68.07;47542.16;5033848;28;20184;-86
2022/10/14 03:00:36;;;;;;;5.33;3.40;;;;;;;-141.97;68.27;47638.25;5035047;28;20180;-86
2022/10/14 03:03:02;;;;;;;7.97;4.00;;;;;;;-141.97;68.07;47638.25;5034530;28;20245;-87
2022/10/14 03:05:27;;;;;;;9.90;3.50;;;;;;;-141.97;68.53;47603.66;5033741;28;20639;-87
2022/10/14 03:07:53;;;;;;;9.70;3.07;;;;;;;-141.97;68.33;47722.81;5016021;28;20170;-86
2022/10/14 03:10:18;;;;;;;4.23;2.90;;;;;;;-141.97;68.74;47592.13;5033983;28;20662;-86
2022/10/14 03:12:43;;;;;;;5.43;3.07;;;;;;;-141.97;68.92;47619.03;5033968;28;20158;-86
2022/10/14 03:15:09;;;;;;;4.83;2.90;;;;;;;-141.97;68.76;47647.84;5032380;28;20202;-85
2022/10/14 03:17:35;;;;;;;5.57;3.13;;;;;;;-141.97;68.40;47503.69;5033000;28;20174;-85
2022/10/14 03:20:01;;;;;;;5.20;3.07;;;;;;;-141.97;68.16;47630.56;5015770;28;20558;-86
2022/10/14 03:22:27;;;;;;;6.67;3.03;;;;;;;-141.97;68.30;47513.31;5015557;28;20192;-86
2022/10/14 03:24:52;;;;;;;7.00;3.50;;;;;;;-141.97;68.16;47532.53;5015412;28;20634;-86
2022/10/14 03:27:17;;;;;;;8.57;3.80;;;;;;;-141.97;67.93;47469.09;5033584;28;20168;-86
2022/10/14 03:29:43;;;;;;;7.10;3.97;;;;;;;-141.97;68.16;47636.31;5031405;28;20170;-86
2022/10/14 03:32:08;;;;;;;9.37;4.30;;;;;;;-141.97;67.85;47734.34;5032469;28;20209;-87
2022/10/14 03:34:33;;;;;;;7.60;3.20;;;;;;;-141.97;68.18;47642.09;5032142;28;20171;-86
2022/10/14 03:36:59;;;;;;;7.47;3.57;;;;;;;-141.97;68.20;47640.16;5033025;28;20218;-86
2022/10/14 03:39:24;;;;;;;7.63;3.83;;;;;;;-141.97;68.25;47659.38;5015858;28;20250;-86
2022/10/14 03:41:50;;;;;;;6.03;3.50;;;;;;;-141.97;67.98;47446.03;5038707;28;20673;-86
2022/10/14 03:44:15;;;;;;;6.73;3.60;;;;;;;-141.97;67.97;47772.78;5020471;28;20542;-85
2022/10/14 03:46:41;;;;;;;12.13;4.50;;;;;;;-141.97;68.21;47655.53;5034405;28;20170;-86
2022/10/14 03:49:06;;;;;;;9.77;4.20;;;;;;;-141.97;68.29;47624.78;5041278;28;20188;-86
2022/10/14 03:51:32;;;;;;;9.73;4.30;;;;;;;-141.97;68.29;47620.94;5059791;28;20586;-84
2022/10/14 03:53:57;;;;;;;13.10;4.83;;;;;;;-141.97;68.05;47628.63;5056852;28;20200;-86
2022/10/14 03:56:22;;;;;;;12.33;4.93;;;;;;;-141.97;68.13;47767.03;5053566;28;20280;-87
2022/10/14 03:58:48;;;;;;;18.10;6.00;;;;;;;-141.97;68.14;47588.28;5038822;28;20170;-85
2022/10/14 04:01:13;;;;;;;16.33;5.60;;;;;;;-141.97;68.36;47653.63;5040604;28;20649;-87
2022/10/14 04:03:40;;;;;;;21.57;10.07;;;;;;;-141.97;68.38;47649.78;5056062;28;20166;-86
2022/10/14 04:06:05;;;;;;;22.97;8.90;;;;;;;-141.97;68.33;47717.06;5035277;28;20192;-86
2022/10/14 04:08:31;;;;;;;13.83;7.40;;;;;;;-141.97;68.53;47582.50;5052434;28;20637;-86
2022/10/14 04:10:57;;;;;;;15.00;7.43;;;;;;;-141.97;68.86;47603.66;5052131;28;20192;-88
2022/10/14 04:13:23;;;;;;;16.57;7.87;;;;;;;-141.97;70.07;47524.84;5052197;28;20177;-87
2022/10/14 04:15:48;;;;;;;11.00;6.03;;;;;;;-141.97;70.79;47494.09;5034366;28;20615;-87
2022/10/14 04:18:14;;;;;;;9.90;5.43;;;;;;;-141.97;70.67;47740.13;5052304;28;20173;-86
2022/10/14 04:20:40;;;;;;;9.10;4.80;;;;;;;-141.97;72.73;47628.63;5052142;28;20165;-87
2022/10/14 04:23:06;;;;;;;9.43;4.63;;;;;;;-141.97;73.65;47476.78;5052177;28;20183;-87
2022/10/14 04:25:32;;;;;;;9.93;4.60;;;;;;;-141.97;73.56;47472.94;5051785;28;20622;-86
2022/10/14 04:27:57;;;;;;;14.93;8.00;;;;;;;-141.97;73.46;47576.75;5051854;28;20223;-87
2022/10/14 04:30:22;;;;;;;18.33;10.33;;;;;;;-141.97;72.72;47768.94;5052116;28;20551;-86
2022/10/14 04:32:48;;;;;;;33.17;20.80;;;;;;;-141.97;72.15;47546.00;5051793;28;20165;-86
2022/10/14 04:35:13;;;;;;;62.80;40.63;;;;;;;-141.97;71.80;47526.75;5051961;28;20190;-86
2022/10/14 04:37:39;;;;;;;85.87;53.87;;;;;;;-141.97;71.62;47486.41;5052109;28;20173;-87
2022/10/14 04:40:05;;;;;;;96.87;55.70;;;;;;;-141.97;71.42;47749.72;5033676;28;20606;-85
2022/10/14 04:42:30;;;;;;;80.83;45.23;;;;;;;-141.97;71.04;47607.50;5011274;28;20240;-87
2022/10/14 04:44:56;;;;;;;53.83;34.40;;;;;;;-141.97;70.56;47563.28;5018860;28;20518;-86
2022/10/14 04:47:21;;;;;;;40.43;25.47;;;;;;;-141.97;70.16;47649.78;5050059;28;20691;-86
2022/10/14 04:49:46;;;;;;;34.87;22.67;;;;;;;-141.97;70.13;47624.78;5051549;28;20286;-85
2022/10/14 04:52:12;;;;;;;32.20;17.23;;;;;;;-141.97;69.85;47732.44;5052349;28;20676;-86
2022/10/14 04:54:37;;;;;;;37.80;18.50;;;;;;;-141.97;69.25;47534.44;5034026;28;20170;-87
2022/10/14 04:57:03;;;;;;;36.33;19.00;;;;;;;-141.97;69.19;47707.44;5051870;28;20233;-85
2022/10/14 04:59:28;;;;;;;26.77;13.80;;;;;;;-141.97;68.71;47655.53;5051902;28;20252;-86
2022/10/14 05:01:54;;;;;;;22.63;10.53;;;;;;;-141.97;67.80;47622.88;5032699;28;20255;-85
2022/10/14 05:04:19;;;;;;;20.90;9.73;;;;;;;-141.97;67.66;47553.69;5041865;28;20173;-86
2022/10/14 05:06:44;;;;;;;17.43;9.07;;;;;;;-141.97;68.09;47434.50;5053802;28;20169;-85
2022/10/14 05:09:10;;;;;;;38.17;17.93;;;;;;;-141.97;68.12;47592.13;5058024;28;20185;-85
2022/10/14 05:11:35;;;;;;;29.63;15.43;;;;;;;-141.97;67.73;47432.59;5033614;28;20165;-85
2022/10/14 05:14:01;;;;;;;30.87;13.90;;;;;;;-141.97;67.84;47688.22;5040802;28;20654;-86
2022/10/14 05:16:26;;;;;;;26.60;13.73;;;;;;;-141.97;67.63;47590.19;5051474;28;20250;-85
2022/10/14 05:18:53;;;;;;;22.40;11.27;;;;;;;-141.97;67.38;47542.16;5051225;28;20201;-86
2022/10/14 05:21:18;;;;;;;20.27;8.80;;;;;;;-141.97;66.93;47759.34;5051090;28;20180;-85
2022/10/14 05:23:44;;;;;;;22.93;11.23;;;;;;;-141.97;66.33;47622.88;5040735;28;20174;-87
2022/10/14 05:26:09;;;;;;;29.87;13.10;;;;;;;-141.97;66.09;47599.81;5051261;28;20173;-86
2022/10/14 05:28:37;;;;;;;16.43;6.97;;;;;;;-141.97;65.88;47659.38;5049753;28;20181;-85
2022/10/14 05:31:03;;;;;;;15.13;6.27;;;;;;;-141.97;65.86;47526.75;5050716;28;20641;-85
2022/10/14 05:33:28;;;;;;;13.63;6.27;;;;;;;-141.97;65.70;47768.94;5022555;28;20246;-85
2022/10/14 05:35:54;;;;;;;13.53;7.43;;;;;;;-141.97;64.94;47601.72;5050069;28;20696;-86
2022/10/14 05:38:19;;;;;;;19.00;8.60;;;;;;;-141.97;63.88;47684.38;5035643;28;20198;-85
2022/10/14 05:40:55;;;;;;;20.73;8.10;;;;;;;-141.97;63.69;47772.78;5025048;28;20212;-86
2022/10/14 05:43:21;;;;;;;24.43;11.43;;;;;;;-141.97;63.50;47724.75;5051440;28;20256;-86
2022/10/14 05:45:46;;;;;;;20.57;10.20;;;;;;;-141.97;62.86;47795.88;5051244;28;20645;-85
2022/10/14 05:48:12;;;;;;;15.80;8.90;;;;;;;-141.97;62.27;47472.94;5051209;28;20183;-85
2022/10/14 05:50:37;;;;;;;13.50;6.87;;;;;;;-141.97;61.01;47642.09;5050773;28;20296;-86
2022/10/14 05:53:03;;;;;;;15.33;6.73;;;;;;;-141.97;59.97;47622.88;5050482;28;20181;-86
2022/10/14 05:55:30;;;;;;;15.47;7.43;;;;;;;-141.97;59.40;47626.72;5055061;28;20216;-86
2022/10/14 05:57:56;;;;;;;13.83;7.07;;;;;;;-141.97;59.45;47636.31;5056545;28;20173;-88
2022/10/14 06:00:21;;;;;;;15.57;9.23;;;;;;;-141.97;58.92;47632.47;5039141;28;20181;-88
2022/10/14 06:02:47;;;;;;;8.73;6.00;;;;;;;-141.97;58.83;47620.94;5036725;28;20633;-87
2022/10/14 06:05:12;;;;;;;15.27;7.07;;;;;;;-141.97;58.90;47772.78;5053471;28;20625;-88
2022/10/14 06:07:38;;;;;;;14.23;7.87;;;;;;;-141.97;58.80;47534.44;5054992;28;20193;-89
2022/10/14 06:10:03;;;;;;;13.00;7.60;;;;;;;-141.97;58.73;47594.03;5036830;28;20260;-90
2022/10/14 06:12:29;;;;;;;19.60;8.23;;;;;;;-141.97;58.63;47599.81;5036987;28;20552;-90
2022/10/14 06:14:54;;;;;;;15.83;7.83;;;;;;;-141.97;58.63;47705.53;5036657;28;20174;-89
2022/10/14 06:17:20;;;;;;;15.37;8.20;;;;;;;-141.97;58.58;47728.59;5054774;28;20172;-90
2022/10/14 06:19:45;;;;;;;17.17;7.97;;;;;;;-141.97;58.61;47732.44;5036915;28;20170;-88
2022/10/14 06:22:10;;;;;;;10.47;5.10;;;;;;;-141.97;58.22;47546.00;5052843;28;20578;-87
2022/10/14 06:24:36;;;;;;;12.27;5.80;;;;;;;-141.97;58.50;47497.94;5054250;28;20173;-88
2022/10/14 06:27:02;;;;;;;15.27;7.13;;;;;;;-141.97;58.35;47513.31;5037861;28;20180;-88
2022/10/14 06:29:31;;;;;;;18.67;6.70;;;;;;;-141.97;58.27;47542.16;5037977;28;20271;-89
2022/10/14 06:31:56;;;;;;;13.07;8.00;;;;;;;-141.97;58.93;47567.13;5054438;28;20162;-89
2022/10/14 06:34:23;;;;;;;18.80;5.93;;;;;;;-141.97;59.09;47511.38;5053938;28;20178;-88
2022/10/14 06:36:49;;;;;;;7.33;4.10;;;;;;;-141.97;58.98;47511.38;5041379;28;20285;-88
2022/10/14 06:39:14;;;;;;;7.87;4.53;;;;;;;-141.97;58.57;47482.56;5036757;28;20198;-89
2022/10/14 06:41:40;;;;;;;11.87;5.00;;;;;;;-141.97;58.72;47717.06;5008197;28;20325;-88
2022/10/14 06:44:07;;;;;;;9.47;4.83;;;;;;;-141.97;58.59;47605.56;5017083;28;20208;-89
2022/10/14 06:46:32;;;;;;;8.30;4.23;;;;;;;-141.97;58.73;47770.88;5035429;28;20286;-88
2022/10/14 06:48:57;;;;;;;10.17;4.40;;;;;;;-141.97;59.35;47770.88;5016260;28;20170;-89
2022/10/14 06:51:23;;;;;;;9.40;4.90;;;;;;;-141.97;59.25;47557.53;5033678;28;20278;-89
2022/10/14 06:53:48;;;;;;;10.07;5.03;;;;;;;-141.97;58.98;47538.28;5015964;28;20552;-89
2022/10/14 06:56:14;;;;;;;10.90;5.20;;;;;;;-141.97;59.18;47647.84;5033701;28;20206;-89
2022/10/14 06:58:39;;;;;;;11.47;5.57;;;;;;;-141.97;60.13;47734.34;5021867;28;20240;-88
2022/10/14 07:01:06;;;;;;;10.80;5.77;;;;;;;-141.97;60.13;47607.50;5029269;28;20189;-90
2022/10/14 07:03:37;;;;;;;13.23;6.50;;;;;;;-141.97;59.34;47538.28;5050200;28;20182;-87
2022/10/14 07:06:04;;;;;;;10.33;6.20;;;;;;;-141.97;58.56;47609.41;5025888;28;20174;-87
2022/10/14 07:08:30;;;;;;;16.37;8.43;;;;;;;-141.97;57.74;47544.06;5017588;28;20174;-88
2022/10/14 07:10:55;;;;;;;14.63;8.03;;;;;;;-141.97;58.13;47553.69;5016303;28;20174;-88
2022/10/14 07:13:20;;;;;;;11.07;6.10;;;;;;;-141.97;56.86;47601.72;5015083;28;20601;-87
2022/10/14 07:15:51;;;;;;;9.67;6.10;;;;;;;-141.97;55.87;47532.53;5033750;28;20193;-88
2022/10/14 07:18:17;;;;;;;9.80;5.30;;;;;;;-141.97;55.52;47622.88;5033630;28;20162;-88
2022/10/14 07:20:42;;;;;;;8.17;4.83;;;;;;;-141.97;55.21;47626.72;5033805;28;20212;-88
2022/10/14 07:23:08;;;;;;;6.40;4.50;;;;;;;-141.97;55.25;47644.00;5033436;28;20572;-87
2022/10/14 07:25:33;;;;;;;12.67;5.50;;;;;;;-141.97;55.61;47572.91;5033951;28;20208;-88
2022/10/14 07:27:59;;;;;;;7.73;3.80;;;;;;;-141.97;55.61;47603.66;5015688;28;20746;-88
2022/10/14 07:30:24;;;;;;;5.93;3.17;;;;;;;-141.97;57.05;47638.25;5032384;28;20177;-88
2022/10/14 07:32:50;;;;;;;6.27;3.10;;;;;;;-141.97;57.11;47547.91;5016203;28;20174;-88
2022/10/14 07:35:17;;;;;;;7.77;2.97;;;;;;;-141.97;56.36;47734.34;5038882;28;20196;-87
2022/10/14 07:37:43;;;;;;;7.13;3.00;;;;;;;-141.97;55.77;47772.78;5038783;28;20220;-88
2022/10/14 07:40:09;;;;;;;8.53;2.40;;;;;;;-141.97;55.60;47599.81;5039401;28;20181;-86
2022/10/14 07:42:35;;;;;;;5.60;2.30;;;;;;;-141.97;55.49;47622.88;5046566;28;20213;-88
2022/10/14 07:45:00;;;;;;;3.97;2.63;;;;;;;-141.97;54.52;47632.47;5058773;28;20557;-88
2022/10/14 07:47:26;;;;;;;4.57;2.10;;;;;;;-141.97;54.13;47492.16;5055578;28;20191;-88
2022/10/14 07:49:51;;;;;;;6.77;2.10;;;;;;;-141.97;53.50;47503.69;5055874;28;20217;-89
2022/10/14 07:52:18;;;;;;;5.90;2.43;;;;;;;-141.97;53.85;47522.91;5058091;28;20646;-85
2022/10/14 07:54:44;;;;;;;7.13;2.30;;;;;;;-141.97;54.13;47390.31;5046755;28;20182;-86
2022/10/14 07:57:11;;;;;;;9.73;2.40;;;;;;;-141.97;54.92;47517.16;5051363;28;20169;-86
2022/10/14 07:59:37;;;;;;;4.70;2.00;;;;;;;-141.97;54.53;47595.97;5056664;28;20172;-88
2022/10/14 08:02:03;;;;;;;3.27;1.97;;;;;;;-141.97;52.84;47482.56;5056233;28;20177;-87
2022/10/14 08:04:29;;;;;;;4.97;2.30;;;;;;;-141.97;53.04;47480.63;5056490;28;20177;-87
2022/10/14 08:06:54;;;;;;;3.83;2.03;;;;;;;-141.97;53.32;47601.72;5055944;28;20173;-88
2022/10/14 08:09:20;;;;;;;3.80;1.87;;;;;;;-141.97;52.42;47480.63;5041144;28;20173;-89
2022/10/14 08:11:48;;;;;;;3.43;1.80;;;;;;;-141.97;52.60;47526.75;5044004;28;20173;-88
2022/10/14 08:14:13;;;;;;;7.90;2.93;;;;;;;-141.97;52.62;47705.53;5036137;28;20205;-88
2022/10/14 08:16:39;;;;;;;4.87;2.30;;;;;;;-141.97;52.95;47613.25;5032622;28;20243;-87
2022/10/14 08:19:08;;;;;;;7.53;2.90;;;;;;;-141.97;52.44;47742.03;5033034;28;20260;-87
2022/10/14 08:21:34;;;;;;;4.97;2.17;;;;;;;-141.97;51.62;47503.69;5033879;28;20173;-87
2022/10/14 08:23:59;;;;;;;3.73;2.20;;;;;;;-141.97;50.20;47538.28;5052076;28;20513;-88
2022/10/14 08:26:29;;;;;;;6.37;2.23;;;;;;;-141.97;49.07;47630.56;5033861;28;20162;-88
2022/10/14 08:28:56;;;;;;;4.70;2.03;;;;;;;-141.97;47.88;47626.72;5052088;28;20257;-87
2022/10/14 08:31:22;;;;;;;6.20;2.30;;;;;;;-141.97;48.42;47620.94;5052329;28;20544;-88
2022/10/14 08:33:48;;;;;;;4.13;2.00;;;;;;;-141.97;47.65;47430.66;5048760;28;20245;-88
2022/10/14 08:36:15;;;;;;;4.80;2.20;;;;;;;-141.97;47.62;47597.88;5034464;28;20232;-87
2022/10/14 08:38:40;;;;;;;3.20;2.10;;;;;;;-141.97;47.52;47544.06;5025344;28;20819;-87
2022/10/14 08:41:12;;;;;;;2.70;2.00;;;;;;;-141.97;47.75;47584.44;5040561;28;20236;-87
2022/10/14 08:44:03;;;;;;;3.97;2.00;;;;;;;-141.97;46.97;47572.91;5052302;28;20566;-87
2022/10/14 08:46:50;;;;;;;4.83;1.97;;;;;;;-141.97;48.02;47632.47;5035045;28;20168;-87
2022/10/14 08:49:28;;;;;;;5.43;2.00;;;;;;;-141.97;47.22;47584.44;5053717;28;20177;-86
2022/10/14 08:52:12;;;;;;;3.83;1.90;;;;;;;-141.97;47.46;47580.59;5021719;28;20681;-88
2022/10/14 08:54:41;;;;;;;5.60;1.97;;;;;;;-141.97;47.93;47561.38;5020380;28;20178;-89
2022/10/14 08:57:20;;;;;;;4.03;1.87;;;;;;;-141.97;48.12;47657.47;5008262;28;20671;-89
2022/10/14 08:59:46;;;;;;;3.47;1.90;;;;;;;-141.97;48.70;47613.25;4994502;28;20173;-90
2022/10/14 09:02:59;;;;;;;3.70;2.10;;;;;;;-141.97;46.71;47576.75;5019143;28;20170;-90
2022/10/14 09:05:25;;;;;;;3.97;1.90;;;;;;;-141.97;46.10;47513.31;4955368;28;20188;-87
2022/10/14 09:07:53;;;;;;;6.40;2.00;;;;;;;-141.97;45.58;47742.03;4969061;28;20867;-89
2022/10/14 09:10:33;;;;;;;6.33;2.03;;;;;;;-141.97;45.66;47559.44;4947555;28;20271;-90
2022/10/14 09:13:22;;;;;;;2.90;1.77;;;;;;;-141.97;44.84;47588.28;4964806;28;20183;-88
2022/10/14 09:15:57;;;;;;;5.13;2.20;;;;;;;-141.97;44.80;47592.13;4960043;28;20302;-87
2022/10/14 09:18:30;;;;;;;2.80;1.93;;;;;;;-141.97;44.49;47446.03;4967764;28;20227;-87
2022/10/14 09:20:56;;;;;;;3.87;1.90;;;;;;;-141.97;45.25;47588.28;4964690;28;20495;-88
2022/10/14 09:23:24;;;;;;;3.33;1.80;;;;;;;-141.97;45.32;47503.69;4971517;28;20192;-88
2022/10/14 09:26:10;;;;;;;5.17;1.90;;;;;;;-141.97;45.20;47567.13;4958265;28;20168;-88
2022/10/14 09:28:39;;;;;;;4.20;1.87;;;;;;;-141.97;44.85;47755.50;4965813;28;20188;-88
2022/10/14 09:31:06;;;;;;;3.47;2.00;;;;;;;-141.97;44.65;47594.03;4968837;28;21167;-90
2022/10/14 09:33:34;;;;;;;3.00;1.93;;;;;;;-141.97;43.41;47388.38;4973050;28;20179;-88
2022/10/14 09:35:59;;;;;;;3.57;2.00;;;;;;;-141.97;43.23;47699.75;4965517;28;20223;-89
2022/10/14 09:38:26;;;;;;;5.43;2.10;;;;;;;-141.97;43.47;47419.13;4978324;28;20176;-89
2022/10/14 09:40:57;;;;;;;3.83;2.30;;;;;;;-141.97;43.71;47519.06;4962215;28;20563;-89
2022/10/14 09:43:26;;;;;;;4.07;1.73;;;;;;;-141.97;43.48;47534.44;5013583;28;20210;-88
2022/10/14 09:46:09;;;;;;;2.60;1.90;;;;;;;-141.97;43.56;47722.81;4999702;28;20224;-89
2022/10/14 09:48:38;;;;;;;4.07;1.90;;;;;;;-141.97;42.17;47444.13;5035125;28;20650;-89
2022/10/14 09:51:18;;;;;;;2.70;1.80;;;;;;;-141.97;41.43;47684.38;5030387;28;20730;-89
2022/10/14 09:53:50;;;;;;;2.90;1.80;;;;;;;-141.97;41.42;47569.06;5055068;28;20244;-89
2022/10/14 09:56:30;;;;;;;4.70;1.73;;;;;;;-141.97;40.58;47357.63;5031272;28;20745;-90
2022/10/14 09:58:57;;;;;;;1.93;1.60;;;;;;;-141.97;40.56;47565.22;5016898;28;20198;-88
2022/10/14 10:01:28;;;;;;;3.20;1.60;;;;;;;-141.97;40.18;47361.47;5034855;28;20224;-88
2022/10/14 10:03:55;;;;;;;2.07;1.50;;;;;;;-141.97;40.38;47649.78;5034672;28;20565;-90
2022/10/14 10:06:25;;;;;;;4.10;1.60;;;;;;;-141.97;41.20;47407.59;5022063;28;20261;-89
2022/10/14 10:08:56;;;;;;;5.10;2.00;;;;;;;-141.97;41.59;47565.22;5053215;28;20594;-88
2022/10/14 10:11:34;;;;;;;3.80;2.30;;;;;;;-141.97;41.56;47569.06;5036165;28;20175;-88
2022/10/14 10:14:16;;;;;;;3.07;1.90;;;;;;;-141.97;40.86;47726.66;5054091;28;20253;-88
2022/10/14 10:16:42;;;;;;;3.73;1.70;;;;;;;-141.97;40.78;47469.09;5045931;28;20196;-89
2022/10/14 10:19:27;;;;;;;3.93;1.63;;;;;;;-141.97;40.49;47570.97;5028042;28;20269;-87
2022/10/14 10:21:54;;;;;;;3.80;1.80;;;;;;;-141.97;40.60;47565.22;5024244;28;20208;-87
2022/10/14 10:24:22;;;;;;;2.60;1.80;;;;;;;-141.97;41.12;47492.16;5035021;28;20168;-89
2022/10/14 10:26:48;;;;;;;4.37;1.87;;;;;;;-141.97;41.08;47505.63;5025160;28;20231;-90
2022/10/14 10:29:31;;;;;;;5.93;2.53;;;;;;;-141.97;40.95;47572.91;5036551;28;20204;-88
2022/10/14 10:32:31;;;;;;;2.87;1.90;;;;;;;-141.97;39.73;47557.53;5052691;28;20191;-88
2022/10/14 10:35:09;;;;;;;3.50;1.97;;;;;;;-141.97;41.06;47572.91;5036073;28;20207;-90
2022/10/14 10:37:55;;;;;;;4.47;1.97;;;;;;;-141.97;40.14;47570.97;5049227;28;20188;-88
2022/10/14 10:40:55;;;;;;;2.53;1.70;;;;;;;-141.97;40.55;47553.69;5034188;28;20207;-89
2022/10/14 10:43:26;;;;;;;3.93;1.90;;;;;;;-141.97;40.63;47565.22;5056757;28;20236;-89
2022/10/14 10:46:08;;;;;;;3.50;1.83;;;;;;;-141.97;39.93;47580.59;5035775;28;20319;-90
2022/10/14 10:48:45;;;;;;;3.90;1.90;;;;;;;-141.97;39.13;47586.34;5035733;28;20180;-86
2022/10/14 10:51:48;;;;;;;6.00;1.90;;;;;;;-141.97;38.40;47753.56;5021170;28;20225;-88
2022/10/14 10:54:39;;;;;;;3.23;1.50;;;;;;;-141.97;39.22;47563.28;5033176;28;20174;-88
2022/10/14 10:57:44;;;;;;;4.47;1.90;;;;;;;-141.97;39.21;47576.75;4933847;29;20228;-87
2022/10/14 11:00:19;;;;;;;4.87;1.80;;;;;;;-141.97;39.00;47542.16;4896419;29;20194;-87
2022/10/14 11:02:54;;;;;;;2.53;1.90;;;;;;;-141.97;38.71;47553.69;4896676;29;20239;-88
2022/10/14 11:05:34;;;;;;;4.27;1.70;;;;;;;-141.97;38.70;47551.75;4898536;29;20209;-88
2022/10/14 11:14:27;;;;;;;3.73;2.20;;;;;;;-141.97;39.28;47574.81;4896456;29;20217;-87
2022/10/14 11:17:12;;;;;;;3.03;2.03;;;;;;;-141.97;39.04;47584.44;4895980;29;20237;-89
2022/10/14 11:20:01;;;;;;;3.73;2.17;;;;;;;-141.97;38.33;47572.91;4896148;29;20617;-88
2022/10/14 11:22:57;;;;;;;4.77;2.07;;;;;;;-141.97;38.14;47563.28;4880398;29;20289;-88
2022/10/14 11:25:41;;;;;;;4.27;2.00;;;;;;;-141.97;38.50;47536.38;4896043;29;20998;-87
2022/10/14 11:28:23;;;;;;;2.93;1.90;;;;;;;-141.97;38.52;47549.84;4896359;29;20198;-89
2022/10/14 11:31:03;;;;;;;3.40;1.80;;;;;;;-141.97;38.52;47546.00;4896107;29;20197;-89
2022/10/14 11:34:06;;;;;;;3.43;2.07;;;;;;;-141.97;38.19;47578.66;4917695;28;20320;-89